Terminal Aerodrome Forecast
Issued by NWS Boston, MA

Home | Current Version | Previous Version | Text Only | Print | Product List | Glossary On
Versions: 1 2 3 4 5 6 7 8 9 10 11 12 13 14 15 16 17 18 19 20 21 22 23 24 25 26 27 28 29 30 31 32 33 34 35 36 37 38 39 40 41 42 43 44 45 46 47 48 49 50
000
FTUS41 KBOX 262321
TAFBOS
TAF
KBOS 262321Z 2700/2806 06017G30KT 1 1/2SM -SN BLSN OVC020
     FM270200 04017G30KT 1/2SM -SN BLSN OVC006
     FM270600 03026G44KT 1/4SM +SN BLSN OVC006 WS020/03055KT
     FM271800 01028G48KT 1/2SM SN BLSN OVC003 WS020/03055KT
     FM280000 35025G40KT 1SM -SN BLSN OVC008 WS020/03055KT
     FM280500 34019G31KT 2SM -SN BLSN OVC010=

USA.gov is the U.S. government's official web portal to all federal, state and local government web resources and services.